createdAt,value
2018-06-07T00:01:26.014Z,92.40
2018-06-07T00:03:54.698Z,92.50
2018-06-07T00:06:23.373Z,92.50
2018-06-07T00:08:52.036Z,92.60
2018-06-07T00:11:20.712Z,92.70
2018-06-07T00:16:17.728Z,92.50
2018-06-07T00:18:46.375Z,92.40
2018-06-07T00:21:15.085Z,92.30
2018-06-07T00:23:43.749Z,92.30
2018-06-07T00:26:12.424Z,92.10
2018-06-07T00:28:41.023Z,91.80
2018-06-07T00:31:09.715Z,90.90
2018-06-07T00:33:38.356Z,89.10
2018-06-07T00:36:07.058Z,88.00
2018-06-07T00:38:35.780Z,87.00
2018-06-07T00:41:04.440Z,86.50
2018-06-07T00:43:33.136Z,86.30
2018-06-07T00:46:01.860Z,85.80
2018-06-07T00:48:30.558Z,85.90
2018-06-07T00:50:59.292Z,85.70
2018-06-07T00:53:27.982Z,85.20
2018-06-07T00:55:56.681Z,85.30
2018-06-07T00:58:25.414Z,85.30
2018-06-07T01:00:54.136Z,85.30
2018-06-07T01:03:22.833Z,85.00
2018-06-07T01:05:51.439Z,84.60
2018-06-07T01:08:20.132Z,85.00
2018-06-07T01:10:48.776Z,85.00
2018-06-07T01:13:17.457Z,85.20
2018-06-07T01:15:46.119Z,85.10
2018-06-07T01:18:14.837Z,85.30
2018-06-07T01:20:43.429Z,85.30
2018-06-07T01:23:12.053Z,85.50
2018-06-07T01:25:40.661Z,85.50
2018-06-07T01:28:09.200Z,85.60
2018-06-07T01:30:43.056Z,85.80
2018-06-07T01:33:28.806Z,85.80
2018-06-07T01:35:58.804Z,85.90
2018-06-07T01:38:38.543Z,85.90
2018-06-07T01:41:07.133Z,86.00
2018-06-07T01:43:35.753Z,86.30
2018-06-07T01:46:04.391Z,86.50
2018-06-07T01:48:33.006Z,86.70
2018-06-07T01:51:01.640Z,86.80
2018-06-07T01:53:30.225Z,86.90
2018-06-07T01:55:58.797Z,87.10
2018-06-07T01:58:27.383Z,87.00
2018-06-07T02:00:56.005Z,87.40
2018-06-07T02:03:24.613Z,87.40
2018-06-07T02:05:53.208Z,87.70
2018-06-07T02:08:21.765Z,87.70
2018-06-07T02:10:50.317Z,87.70
2018-06-07T02:13:19.013Z,87.80
2018-06-07T02:15:47.646Z,87.90
2018-06-07T02:18:16.297Z,88.00
2018-06-07T02:20:45.033Z,88.10
2018-06-07T02:23:13.771Z,88.30
2018-06-07T02:25:42.426Z,88.40
2018-06-07T02:28:11.064Z,88.30
2018-06-07T02:30:39.755Z,88.40
2018-06-07T02:33:08.421Z,88.50
2018-06-07T02:35:37.121Z,88.60
2018-06-07T02:38:05.923Z,88.70
2018-06-07T02:40:34.607Z,88.60
2018-06-07T02:43:03.273Z,88.80
2018-06-07T02:45:31.929Z,88.80
2018-06-07T02:48:00.551Z,88.90
2018-06-07T02:50:29.276Z,88.90
2018-06-07T02:52:57.912Z,89.10
2018-06-07T02:55:26.605Z,89.20
2018-06-07T02:57:55.269Z,89.30
2018-06-07T03:00:23.949Z,89.30
2018-06-07T03:02:52.631Z,89.40
2018-06-07T03:05:21.381Z,89.50
2018-06-07T03:07:49.969Z,89.60
2018-06-07T03:10:18.684Z,89.70
2018-06-07T03:12:47.355Z,89.90
2018-06-07T03:15:15.915Z,89.90
2018-06-07T03:17:44.566Z,90.10
2018-06-07T03:20:13.171Z,90.30
2018-06-07T03:22:41.772Z,90.50
2018-06-07T03:25:10.364Z,90.80
2018-06-07T03:27:38.945Z,90.90
2018-06-07T03:30:07.558Z,91.00
2018-06-07T03:32:36.157Z,90.80
2018-06-07T03:35:04.902Z,91.00
2018-06-07T03:37:33.488Z,90.90
2018-06-07T03:40:02.119Z,91.10
2018-06-07T03:42:30.798Z,91.30
2018-06-07T03:44:59.403Z,91.20
2018-06-07T03:47:27.987Z,91.20
2018-06-07T03:49:56.622Z,91.50
2018-06-07T03:52:25.330Z,91.60
2018-06-07T03:54:53.933Z,91.80
2018-06-07T03:57:22.528Z,91.80
2018-06-07T03:59:51.238Z,91.90
2018-06-07T04:02:19.887Z,92.00
2018-06-07T04:04:48.466Z,92.10
2018-06-07T04:07:17.031Z,92.00
2018-06-07T04:09:45.627Z,92.10
2018-06-07T04:12:14.399Z,91.80
2018-06-07T04:14:43.058Z,91.70
2018-06-07T04:17:11.675Z,91.80
2018-06-07T04:19:40.306Z,91.80
2018-06-07T04:22:08.998Z,91.60
2018-06-07T04:24:37.663Z,91.30
2018-06-07T04:27:06.300Z,91.10
2018-06-07T04:29:34.949Z,91.20
2018-06-07T04:32:03.630Z,91.20
2018-06-07T04:34:32.255Z,91.20
2018-06-07T04:37:00.957Z,91.20
2018-06-07T04:39:29.539Z,91.10
2018-06-07T04:41:58.236Z,91.10
2018-06-07T04:44:26.868Z,90.90
2018-06-07T04:46:55.493Z,90.90
2018-06-07T04:49:24.127Z,90.90
2018-06-07T04:51:52.749Z,90.80
2018-06-07T04:54:21.394Z,90.90
2018-06-07T04:56:50.134Z,90.70
2018-06-07T04:59:18.801Z,90.50
2018-06-07T05:01:47.454Z,90.30
2018-06-07T05:04:16.123Z,90.40
2018-06-07T05:06:44.937Z,90.40
2018-06-07T05:09:13.614Z,90.20
2018-06-07T05:11:42.307Z,90.10
2018-06-07T05:14:11.073Z,90.00
2018-06-07T05:16:39.591Z,89.90
2018-06-07T05:19:08.196Z,89.80
2018-06-07T05:21:36.868Z,90.00
2018-06-07T05:24:05.487Z,90.00
2018-06-07T05:26:34.183Z,90.00
2018-06-07T05:29:02.800Z,89.50
2018-06-07T05:31:31.438Z,88.80
2018-06-07T05:33:59.975Z,88.40
2018-06-07T05:36:28.561Z,88.90
2018-06-07T05:38:57.214Z,88.90
2018-06-07T05:41:31.202Z,88.90
2018-06-07T05:43:59.824Z,88.90
2018-06-07T05:46:28.406Z,88.80
2018-06-07T05:48:57.063Z,89.30
2018-06-07T05:51:25.741Z,89.30
2018-06-07T05:53:54.450Z,89.20
2018-06-07T05:56:23.129Z,89.10
2018-06-07T05:58:51.745Z,88.20
2018-06-07T06:01:20.311Z,88.30
2018-06-07T06:03:48.895Z,87.90
2018-06-07T06:06:17.556Z,87.90
2018-06-07T06:08:46.191Z,87.10
2018-06-07T06:11:14.909Z,86.30
2018-06-07T06:13:43.631Z,86.60
2018-06-07T06:16:12.302Z,86.00
2018-06-07T06:18:41.084Z,86.90
2018-06-07T06:21:09.705Z,86.50
2018-06-07T06:23:38.385Z,86.60
2018-06-07T06:26:07.048Z,86.00
2018-06-07T06:28:35.713Z,85.70
2018-06-07T06:31:04.436Z,86.40
2018-06-07T06:33:33.070Z,86.40
2018-06-07T06:36:06.484Z,86.50
2018-06-07T06:38:40.160Z,86.30
2018-06-07T06:41:08.983Z,86.30
2018-06-07T06:43:37.574Z,86.50
2018-06-07T06:46:06.383Z,86.20
2018-06-07T06:48:35.118Z,86.00
2018-06-07T06:51:03.801Z,86.50
2018-06-07T06:53:32.430Z,86.50
2018-06-07T06:56:01.062Z,85.50
2018-06-07T06:58:29.656Z,85.30
2018-06-07T07:00:58.350Z,85.60
2018-06-07T07:03:27.018Z,85.00
2018-06-07T07:05:55.669Z,85.60
2018-06-07T07:10:52.620Z,86.00
2018-06-07T07:13:21.242Z,85.30
2018-06-07T07:15:50.048Z,85.30
2018-06-07T07:18:18.721Z,85.60
2018-06-07T07:20:48.593Z,86.30
2018-06-07T07:23:17.831Z,85.30
2018-06-07T07:25:47.687Z,85.00
2018-06-07T07:28:16.351Z,84.30
2018-06-07T07:30:45.057Z,83.60
2018-06-07T07:33:14.060Z,84.10
2018-06-07T07:35:42.995Z,84.50
2018-06-07T07:38:12.304Z,84.10
2018-06-07T07:40:41.127Z,83.80
2018-06-07T07:43:10.066Z,84.60
2018-06-07T07:45:38.725Z,83.70
2018-06-07T07:48:07.427Z,84.20
2018-06-07T07:50:37.061Z,84.10
2018-06-07T07:53:05.745Z,84.50
2018-06-07T07:55:34.395Z,84.10
2018-06-07T07:58:02.925Z,83.60
2018-06-07T08:00:31.477Z,84.00
2018-06-07T08:03:00.112Z,84.80
2018-06-07T08:05:28.709Z,83.90
2018-06-07T08:07:57.308Z,84.10
2018-06-07T08:10:25.929Z,84.10
2018-06-07T08:12:54.507Z,85.20
2018-06-07T08:15:23.217Z,85.10
2018-06-07T08:17:51.758Z,83.80
2018-06-07T08:20:20.374Z,83.50
2018-06-07T08:22:48.929Z,82.90
2018-06-07T08:25:17.566Z,81.60
2018-06-07T08:27:46.210Z,82.00
2018-06-07T08:30:14.751Z,82.50
2018-06-07T08:32:43.364Z,81.70
2018-06-07T08:35:11.933Z,81.50
2018-06-07T08:37:40.715Z,81.30
2018-06-07T08:40:09.406Z,81.10
2018-06-07T08:42:38.006Z,82.10
2018-06-07T08:45:06.695Z,80.90
2018-06-07T08:47:35.361Z,80.90
2018-06-07T08:50:03.989Z,80.90
2018-06-07T08:52:32.590Z,80.90
2018-06-07T08:55:01.221Z,80.00
2018-06-07T08:57:29.897Z,80.20
2018-06-07T08:59:58.756Z,80.50
2018-06-07T09:02:27.320Z,81.30
2018-06-07T09:07:24.129Z,81.40
2018-06-07T09:09:52.783Z,81.90
2018-06-07T09:12:21.479Z,81.60
2018-06-07T09:14:50.178Z,81.50
2018-06-07T09:17:18.911Z,80.70
2018-06-07T09:19:47.583Z,79.70
2018-06-07T09:22:16.202Z,81.40
2018-06-07T09:24:44.792Z,80.10
2018-06-07T09:27:13.462Z,79.40
2018-06-07T09:32:10.403Z,79.50
2018-06-07T09:34:39.019Z,80.00
2018-06-07T09:37:07.711Z,78.00
2018-06-07T09:39:36.387Z,77.90
2018-06-07T09:42:05.113Z,78.10
2018-06-07T09:44:33.751Z,77.30
2018-06-07T09:47:02.557Z,78.80
2018-06-07T09:49:31.210Z,76.40
2018-06-07T09:51:59.937Z,76.60
2018-06-07T09:54:28.632Z,77.30
2018-06-07T09:56:57.254Z,76.80
2018-06-07T09:59:25.927Z,77.70
2018-06-07T10:01:54.513Z,76.90
2018-06-07T10:04:23.138Z,77.30
2018-06-07T10:06:51.819Z,76.00
2018-06-07T10:09:20.608Z,75.30
2018-06-07T10:11:49.294Z,75.30
2018-06-07T10:14:17.984Z,76.00
2018-06-07T10:16:46.721Z,74.60
2018-06-07T10:19:15.348Z,74.30
2018-06-07T10:21:44.050Z,74.00
2018-06-07T10:24:12.734Z,73.40
2018-06-07T10:26:41.369Z,72.40
2018-06-07T10:29:10.121Z,71.50
2018-06-07T10:31:38.757Z,69.90
2018-06-07T10:34:07.430Z,71.30
2018-06-07T10:36:36.183Z,68.70
2018-06-07T10:39:07.310Z,70.00
2018-06-07T10:41:35.890Z,69.90
2018-06-07T10:44:04.771Z,68.70
2018-06-07T10:46:33.449Z,70.30
2018-06-07T10:49:02.131Z,70.50
2018-06-07T10:51:30.783Z,71.60
2018-06-07T10:53:59.443Z,70.20
2018-06-07T10:56:32.823Z,71.90
2018-06-07T10:59:01.483Z,69.60
2018-06-07T11:01:30.172Z,70.30
2018-06-07T11:03:58.856Z,70.50
2018-06-07T11:06:27.511Z,68.90
2018-06-07T11:08:56.177Z,68.00
2018-06-07T11:11:24.878Z,67.70
2018-06-07T11:13:53.586Z,69.30
2018-06-07T11:16:22.320Z,69.50
2018-06-07T11:18:50.954Z,67.20
2018-06-07T11:21:19.560Z,68.40
2018-06-07T11:23:48.212Z,69.50
2018-06-07T11:26:16.962Z,66.60
2018-06-07T11:28:45.626Z,67.00
2018-06-07T11:31:14.401Z,67.70
2018-06-07T11:33:43.063Z,67.10
2018-06-07T11:36:33.679Z,67.90
2018-06-07T11:39:02.366Z,67.80
2018-06-07T11:41:31.045Z,71.90
2018-06-07T11:43:59.718Z,70.10
2018-06-07T11:46:28.402Z,68.60
2018-06-07T11:48:57.155Z,66.90
2018-06-07T11:51:25.864Z,68.10
2018-06-07T11:53:54.542Z,68.80
2018-06-07T11:56:23.176Z,68.10
2018-06-07T11:58:51.793Z,69.60
2018-06-07T12:01:20.524Z,72.00
2018-06-07T12:03:49.319Z,69.90
2018-06-07T12:06:17.991Z,68.80
2018-06-07T12:08:46.678Z,68.10
2018-06-07T12:11:15.438Z,66.50
2018-06-07T12:16:40.289Z,67.70
2018-06-07T12:19:09.002Z,67.40
2018-06-07T12:21:37.819Z,67.10
2018-06-07T12:24:06.664Z,68.20
2018-06-07T12:26:35.323Z,68.20
2018-06-07T12:29:04.081Z,67.70
2018-06-07T12:31:39.631Z,65.40
2018-06-07T12:34:08.455Z,64.90
2018-06-07T12:36:37.426Z,62.80
2018-06-07T12:39:08.645Z,62.50
2018-06-07T12:41:37.573Z,63.80
2018-06-07T12:44:06.708Z,64.50
2018-06-07T12:46:35.500Z,65.00
2018-06-07T12:49:04.142Z,64.60
2018-06-07T12:51:32.837Z,66.20
2018-06-07T12:54:01.498Z,64.60
2018-06-07T12:56:30.301Z,66.00
2018-06-07T12:58:58.919Z,65.30
2018-06-07T13:01:27.642Z,67.10
2018-06-07T13:03:56.298Z,65.80
2018-06-07T13:06:24.987Z,60.70
2018-06-07T13:08:53.726Z,61.20
2018-06-07T13:11:22.254Z,62.20
2018-06-07T13:13:50.860Z,63.80
2018-06-07T13:16:19.448Z,63.20
2018-06-07T13:18:48.064Z,65.40
2018-06-07T13:21:16.709Z,65.60
2018-06-07T13:23:45.303Z,66.60
2018-06-07T13:26:13.911Z,64.40
2018-06-07T13:28:42.541Z,63.60
2018-06-07T13:31:11.122Z,60.90
2018-06-07T13:33:39.757Z,59.80
2018-06-07T13:36:08.323Z,59.40
2018-06-07T13:38:36.975Z,58.20
2018-06-07T13:41:05.616Z,58.60
2018-06-07T13:43:34.256Z,57.00
2018-06-07T13:46:02.889Z,55.70
2018-06-07T13:48:31.563Z,57.50
2018-06-07T13:51:00.229Z,56.60
2018-06-07T13:53:28.777Z,58.70
2018-06-07T13:55:57.404Z,58.60
2018-06-07T13:58:25.971Z,59.40
2018-06-07T14:00:54.636Z,61.20
2018-06-07T14:03:23.265Z,60.60
2018-06-07T14:05:51.892Z,62.90
2018-06-07T14:08:20.393Z,62.60
2018-06-07T14:10:48.973Z,61.50
2018-06-07T14:13:17.640Z,60.20
2018-06-07T14:15:46.265Z,60.60
2018-06-07T14:18:14.934Z,62.00
2018-06-07T14:20:43.626Z,61.30
2018-06-07T14:23:12.282Z,61.10
2018-06-07T14:25:40.961Z,61.60
2018-06-07T14:28:09.592Z,63.10
2018-06-07T14:30:38.238Z,59.30
2018-06-07T14:33:06.930Z,57.50
2018-06-07T14:35:35.510Z,53.00
2018-06-07T14:38:04.121Z,53.30
2018-06-07T14:40:32.771Z,56.40
2018-06-07T14:43:01.748Z,56.50
2018-06-07T14:45:30.556Z,54.90
2018-06-07T14:50:27.727Z,55.20
2018-06-07T14:52:56.489Z,55.60
2018-06-07T14:55:25.325Z,57.40
2018-06-07T14:57:54.253Z,57.60
2018-06-07T15:00:23.187Z,60.90
2018-06-07T15:02:52.016Z,63.40
2018-06-07T15:07:57.426Z,65.10
2018-06-07T15:10:26.237Z,63.90
2018-06-07T15:12:55.069Z,61.10
2018-06-07T15:15:23.816Z,60.20
2018-06-07T15:17:53.319Z,56.40
2018-06-07T15:20:22.176Z,55.60
2018-06-07T15:22:51.139Z,55.40
2018-06-07T15:25:20.168Z,56.40
2018-06-07T15:27:49.001Z,57.40
2018-06-07T15:30:17.715Z,57.50
2018-06-07T15:32:46.533Z,58.90
2018-06-07T15:35:15.219Z,61.50
2018-06-07T15:37:43.941Z,64.60
2018-06-07T15:40:12.683Z,66.80
2018-06-07T15:42:41.214Z,68.60
2018-06-07T15:45:10.260Z,69.80
2018-06-07T15:47:40.726Z,69.80
2018-06-07T15:50:09.620Z,69.70
2018-06-07T15:52:38.245Z,70.80
2018-06-07T15:55:09.797Z,70.90
2018-06-07T15:57:38.411Z,71.40
2018-06-07T16:00:07.109Z,72.30
2018-06-07T16:02:35.813Z,72.00
2018-06-07T16:05:05.443Z,72.30
2018-06-07T16:07:34.054Z,72.50
2018-06-07T16:10:02.701Z,72.90
2018-06-07T16:12:31.325Z,73.80
2018-06-07T16:15:00.098Z,73.00
2018-06-07T16:17:28.654Z,73.80
2018-06-07T16:19:57.677Z,74.50
2018-06-07T16:22:26.266Z,74.20
2018-06-07T16:24:54.911Z,74.90
2018-06-07T16:27:23.494Z,74.80
2018-06-07T16:29:52.238Z,74.60
2018-06-07T16:32:20.893Z,75.10
2018-06-07T16:34:49.482Z,75.20
2018-06-07T16:37:18.174Z,75.40
2018-06-07T16:39:46.793Z,76.00
2018-06-07T16:42:15.415Z,76.30
2018-06-07T16:44:44.089Z,76.20
2018-06-07T16:47:12.787Z,76.00
2018-06-07T16:49:41.433Z,76.40
2018-06-07T16:52:10.155Z,76.50
2018-06-07T16:54:38.736Z,76.70
2018-06-07T16:57:07.518Z,76.90
2018-06-07T16:59:36.133Z,76.90
2018-06-07T17:02:04.728Z,76.80
2018-06-07T17:04:33.618Z,76.70
2018-06-07T17:07:02.477Z,76.60
2018-06-07T17:09:31.138Z,76.60
2018-06-07T17:11:59.801Z,77.70
2018-06-07T17:14:28.342Z,77.80
2018-06-07T17:16:57.038Z,78.00
2018-06-07T17:19:25.594Z,77.70
2018-06-07T17:21:54.269Z,77.70
2018-06-07T17:24:22.912Z,77.60
2018-06-07T17:26:51.650Z,77.60
2018-06-07T17:29:20.216Z,77.60
2018-06-07T17:31:48.940Z,78.10
2018-06-07T17:34:17.487Z,78.60
2018-06-07T17:36:46.083Z,79.20
2018-06-07T17:39:14.648Z,79.50
2018-06-07T17:41:43.350Z,80.00
2018-06-07T17:44:11.893Z,80.50
2018-06-07T17:46:40.506Z,80.80
2018-06-07T17:49:09.059Z,81.10
2018-06-07T17:51:37.659Z,82.00
2018-06-07T17:54:06.284Z,82.30
2018-06-07T17:56:35.515Z,82.70
2018-06-07T17:59:04.267Z,83.40
2018-06-07T18:01:32.918Z,83.90
2018-06-07T18:04:01.538Z,84.20
2018-06-07T18:06:30.224Z,84.80
2018-06-07T18:08:58.906Z,85.10
2018-06-07T18:11:27.623Z,85.20
2018-06-07T18:13:56.306Z,85.60
2018-06-07T18:16:24.921Z,85.80
2018-06-07T18:18:53.633Z,86.20
2018-06-07T18:21:22.359Z,86.50
2018-06-07T18:23:51.091Z,86.70
2018-06-07T18:26:19.758Z,87.30
2018-06-07T18:28:48.441Z,87.90
2018-06-07T18:31:17.099Z,88.10
2018-06-07T18:33:45.776Z,88.60
2018-06-07T18:36:14.422Z,89.20
2018-06-07T18:38:43.110Z,88.90
2018-06-07T18:41:11.741Z,89.60
2018-06-07T18:43:40.434Z,90.10
2018-06-07T18:46:09.114Z,90.10
2018-06-07T18:48:37.815Z,90.20
2018-06-07T18:51:06.662Z,90.30
2018-06-07T18:53:35.310Z,90.80
2018-06-07T18:56:04.051Z,90.50
2018-06-07T18:58:32.734Z,90.60
2018-06-07T19:01:01.444Z,90.50
2018-06-07T19:03:30.249Z,90.60
2018-06-07T19:05:58.897Z,90.80
2018-06-07T19:08:28.091Z,91.00
2018-06-07T19:10:56.716Z,90.90
2018-06-07T19:13:30.624Z,91.00
2018-06-07T19:15:59.533Z,91.30
2018-06-07T19:18:28.321Z,91.70
2018-06-07T19:20:57.614Z,91.80
2018-06-07T19:23:26.227Z,91.80
2018-06-07T19:26:00.032Z,91.90
2018-06-07T19:28:28.591Z,92.10
2018-06-07T19:30:57.323Z,92.20
2018-06-07T19:33:31.212Z,92.80
2018-06-07T19:36:00.346Z,93.00
2018-06-07T19:38:28.912Z,92.60
2018-06-07T19:41:03.142Z,92.60
2018-06-07T19:43:31.790Z,92.50
2018-06-07T19:46:01.390Z,92.30
2018-06-07T19:48:30.011Z,92.50
2018-06-07T19:50:59.015Z,92.80
2018-06-07T19:53:28.791Z,93.10
2018-06-07T19:55:57.502Z,93.30
2018-06-07T19:58:26.118Z,93.40
2018-06-07T20:00:57.056Z,93.40
2018-06-07T20:03:26.522Z,93.40
2018-06-07T20:05:55.375Z,93.30
2018-06-07T20:08:25.796Z,93.40
2018-06-07T20:10:55.794Z,93.80
2018-06-07T20:13:24.729Z,93.90
2018-06-07T20:15:54.116Z,93.90
2018-06-07T20:18:22.822Z,94.30
2018-06-07T20:20:51.495Z,94.30
2018-06-07T20:23:20.081Z,94.60
2018-06-07T20:25:50.999Z,94.60
2018-06-07T20:28:21.010Z,94.90
2018-06-07T20:30:51.954Z,94.70
2018-06-07T20:33:21.913Z,94.60
2018-06-07T20:35:52.180Z,94.80
2018-06-07T20:38:21.085Z,95.20
2018-06-07T20:40:50.725Z,95.20
2018-06-07T20:43:19.365Z,95.20
2018-06-07T20:45:48.020Z,95.20
2018-06-07T20:48:16.651Z,95.10
2018-06-07T20:50:45.242Z,95.00
2018-06-07T20:53:13.984Z,95.00
2018-06-07T20:55:42.758Z,95.10
2018-06-07T20:58:11.418Z,95.10
2018-06-07T21:00:40.152Z,94.90
2018-06-07T21:03:09.073Z,94.60
2018-06-07T21:05:37.818Z,94.70
2018-06-07T21:10:35.029Z,95.00
2018-06-07T21:13:04.064Z,94.90
2018-06-07T21:15:32.697Z,95.10
2018-06-07T21:18:01.961Z,95.10
2018-06-07T21:20:30.678Z,95.60
2018-06-07T21:22:59.483Z,95.80
2018-06-07T21:25:28.265Z,95.70
2018-06-07T21:27:56.914Z,95.70
2018-06-07T21:30:25.670Z,95.80
2018-06-07T21:32:54.442Z,95.90
2018-06-07T21:35:23.174Z,95.70
2018-06-07T21:37:51.837Z,95.70
2018-06-07T21:40:20.655Z,95.80
2018-06-07T21:42:49.261Z,95.90
2018-06-07T21:45:17.909Z,95.90
2018-06-07T21:47:46.502Z,95.90
2018-06-07T21:50:15.167Z,95.80
2018-06-07T21:52:44.294Z,95.80
2018-06-07T21:55:13.000Z,95.90
2018-06-07T21:57:41.633Z,95.90
2018-06-07T22:00:10.813Z,95.90
2018-06-07T22:02:39.740Z,95.80
2018-06-07T22:05:08.472Z,95.80
2018-06-07T22:07:37.121Z,95.90
2018-06-07T22:10:05.785Z,95.90
2018-06-07T22:12:34.569Z,96.00
2018-06-07T22:15:03.788Z,96.10
2018-06-07T22:17:32.586Z,96.00
2018-06-07T22:20:01.866Z,96.00
2018-06-07T22:22:30.806Z,95.80
2018-06-07T22:24:59.401Z,95.70
2018-06-07T22:27:28.250Z,95.70
2018-06-07T22:29:56.930Z,95.80
2018-06-07T22:32:25.528Z,95.90
2018-06-07T22:34:54.112Z,96.00
2018-06-07T22:37:22.701Z,96.00
2018-06-07T22:39:51.651Z,96.10
2018-06-07T22:42:20.506Z,96.20
2018-06-07T22:44:49.040Z,96.20
2018-06-07T22:47:17.715Z,96.10
2018-06-07T22:49:46.621Z,96.10
2018-06-07T22:52:15.274Z,96.20
2018-06-07T22:54:43.902Z,96.40
2018-06-07T22:57:12.450Z,96.40
2018-06-07T22:59:41.634Z,96.40
2018-06-07T23:02:10.997Z,96.10
2018-06-07T23:04:39.570Z,95.90
2018-06-07T23:07:08.200Z,96.00
2018-06-07T23:09:36.772Z,96.10
2018-06-07T23:12:05.511Z,96.20
2018-06-07T23:14:34.114Z,96.30
2018-06-07T23:19:31.065Z,96.50
2018-06-07T23:21:59.697Z,96.60
2018-06-07T23:24:28.375Z,96.50
2018-06-07T23:26:57.106Z,96.40
2018-06-07T23:29:26.006Z,96.30
2018-06-07T23:31:54.630Z,96.10
2018-06-07T23:34:23.297Z,96.10
2018-06-07T23:36:51.917Z,96.20
2018-06-07T23:39:20.519Z,96.20
2018-06-07T23:41:49.153Z,96.10
2018-06-07T23:44:17.849Z,96.00
2018-06-07T23:46:47.070Z,96.00
2018-06-07T23:49:15.717Z,95.90
2018-06-07T23:51:44.397Z,95.80
2018-06-07T23:54:13.099Z,95.80
2018-06-07T23:56:41.756Z,95.70
2018-06-07T23:59:10.817Z,95.70
